createdAt,value
2018-09-11T00:00:36.403Z,1018.48
2018-09-11T00:01:45.563Z,1018.48
2018-09-11T00:02:55.232Z,1018.48
2018-09-11T00:04:04.130Z,1018.55
2018-09-11T00:05:13.304Z,1018.55
2018-09-11T00:06:23.004Z,1018.54
2018-09-11T00:07:32.695Z,1018.51
2018-09-11T00:08:41.848Z,1018.52
2018-09-11T00:09:51.022Z,1018.58
2018-09-11T00:11:00.523Z,1018.5
2018-09-11T00:12:09.695Z,1018.56
2018-09-11T00:13:19.140Z,1018.56
2018-09-11T00:14:28.304Z,1018.6
2018-09-11T00:15:37.732Z,1018.63
2018-09-11T00:16:46.635Z,1018.61
2018-09-11T00:17:55.806Z,1018.6
2018-09-11T00:19:05.498Z,1018.61
2018-09-11T00:20:14.415Z,1018.65
2018-09-11T00:21:23.591Z,1018.64
2018-09-11T00:22:33.015Z,1018.66
2018-09-11T00:23:42.699Z,1018.65
2018-09-11T00:24:51.349Z,1018.63
2018-09-11T00:26:00.329Z,1018.63
2018-09-11T00:27:10.022Z,1018.59
2018-09-11T00:28:19.470Z,1018.61
2018-09-11T00:29:28.646Z,1018.57
2018-09-11T00:30:38.074Z,1018.58
2018-09-11T00:31:48.009Z,1018.62
2018-09-11T00:32:57.958Z,1018.61
2018-09-11T00:34:06.933Z,1018.57
2018-09-11T00:35:16.100Z,1018.52
2018-09-11T00:36:25.515Z,1018.56
2018-09-11T00:37:35.200Z,1018.56
2018-09-11T00:38:44.354Z,1018.57
2018-09-11T00:39:54.295Z,1018.59
2018-09-11T00:41:03.958Z,1018.56
2018-09-11T00:42:13.205Z,1018.56
2018-09-11T00:43:22.524Z,1018.52
2018-09-11T00:44:32.207Z,1018.56
2018-09-11T00:45:41.635Z,1018.54
2018-09-11T00:46:51.065Z,1018.55
2018-09-11T00:48:01.001Z,1018.55
2018-09-11T00:49:10.409Z,1018.55
2018-09-11T00:50:19.580Z,1018.56
2018-09-11T00:51:29.270Z,1018.55
2018-09-11T00:52:38.432Z,1018.49
2018-09-11T00:53:47.853Z,1018.56
2018-09-11T00:54:57.537Z,1018.52
2018-09-11T00:56:06.707Z,1018.54
2018-09-11T00:57:16.143Z,1018.53
2018-09-11T00:58:25.321Z,1018.53
2018-09-11T00:59:34.747Z,1018.55
2018-09-11T01:00:44.177Z,1018.58
2018-09-11T01:01:53.084Z,1018.58
2018-09-11T01:03:02.229Z,1018.59
2018-09-11T01:04:11.909Z,1018.6
2018-09-11T01:05:21.087Z,1018.63
2018-09-11T01:06:30.258Z,1018.63
2018-09-11T01:07:39.947Z,1018.65
2018-09-11T01:08:48.856Z,1018.64
2018-09-11T01:09:58.318Z,1018.61
2018-09-11T01:11:08.237Z,1018.63
2018-09-11T01:12:17.159Z,1018.59
2018-09-11T01:13:26.341Z,1018.57
2018-09-11T01:14:35.542Z,1018.59
2018-09-11T01:15:44.709Z,1018.57
2018-09-11T01:16:54.119Z,1018.57
2018-09-11T01:18:03.299Z,1018.53
2018-09-11T01:19:12.466Z,1018.56
2018-09-11T01:20:21.891Z,1018.51
2018-09-11T01:21:31.254Z,1018.54
2018-09-11T01:22:40.432Z,1018.52
2018-09-11T01:23:49.861Z,1018.47
2018-09-11T01:24:59.282Z,1018.47
2018-09-11T01:26:08.193Z,1018.47
2018-09-11T01:27:17.376Z,1018.44
2018-09-11T01:28:26.872Z,1018.46
2018-09-11T01:29:36.304Z,1018.48
2018-09-11T01:30:45.984Z,1018.45
2018-09-11T01:31:55.424Z,1018.47
2018-09-11T01:33:05.101Z,1018.48
2018-09-11T01:34:14.795Z,1018.49
2018-09-11T01:35:23.958Z,1018.49
2018-09-11T01:36:32.857Z,1018.44
2018-09-11T01:37:41.768Z,1018.45
2018-09-11T01:38:51.463Z,1018.43
2018-09-11T01:40:00.623Z,1018.44
2018-09-11T01:41:10.076Z,1018.44
2018-09-11T01:42:19.243Z,1018.49
2018-09-11T01:43:28.404Z,1018.46
2018-09-11T01:44:37.824Z,1018.41
2018-09-11T01:45:47.513Z,1018.41
2018-09-11T01:46:56.945Z,1018.38
2018-09-11T01:48:06.641Z,1018.38
2018-09-11T01:49:16.068Z,1018.4
2018-09-11T01:50:25.252Z,1018.38
2018-09-11T01:51:34.933Z,1018.41
2018-09-11T01:52:44.096Z,1018.42
2018-09-11T01:53:53.272Z,1018.43
2018-09-11T01:55:02.696Z,1018.39
2018-09-11T01:56:12.138Z,1018.39
2018-09-11T01:57:21.568Z,1018.4
2018-09-11T01:58:31.024Z,1018.36
2018-09-11T01:59:40.452Z,1018.33
2018-09-11T02:00:49.628Z,1018.3
2018-09-11T02:01:59.567Z,1018.25
2018-09-11T02:03:08.999Z,1018.26
2018-09-11T02:04:17.933Z,1018.29
2018-09-11T02:05:27.090Z,1018.22
2018-09-11T02:06:36.790Z,1018.21
2018-09-11T02:07:46.231Z,1018.17
2018-09-11T02:08:55.661Z,1018.19
2018-09-11T02:10:05.087Z,1018.17
2018-09-11T02:11:13.989Z,1018.2
2018-09-11T02:12:22.888Z,1018.24
2018-09-11T02:13:32.387Z,1018.23
2018-09-11T02:14:41.815Z,1018.25
2018-09-11T02:15:50.789Z,1018.27
2018-09-11T02:16:59.947Z,1018.23
2018-09-11T02:18:09.376Z,1018.24
2018-09-11T02:19:18.789Z,1018.26
2018-09-11T02:20:28.206Z,1018.25
2018-09-11T02:21:37.388Z,1018.27
2018-09-11T02:22:46.815Z,1018.23
2018-09-11T02:23:55.984Z,1018.3
2018-09-11T02:25:05.411Z,1018.29
2018-09-11T02:26:14.329Z,1018.31
2018-09-11T02:27:23.503Z,1018.33
2018-09-11T02:28:32.680Z,1018.32
2018-09-11T02:29:41.898Z,1018.32
2018-09-11T02:30:51.331Z,1018.31
2018-09-11T02:32:00.311Z,1018.3
2018-09-11T02:33:10.285Z,1018.28
2018-09-11T02:34:20.012Z,1018.28
2018-09-11T02:35:28.946Z,1018.32
2018-09-11T02:36:38.525Z,1018.33
2018-09-11T02:37:47.764Z,1018.33
2018-09-11T02:38:56.925Z,1018.32
2018-09-11T02:40:06.656Z,1018.34
2018-09-11T02:41:16.333Z,1018.35
2018-09-11T02:42:25.506Z,1018.33
2018-09-11T02:43:35.470Z,1018.32
2018-09-11T02:44:44.903Z,1018.35
2018-09-11T02:45:54.850Z,1018.32
2018-09-11T02:47:04.674Z,1018.34
2018-09-11T02:48:13.861Z,1018.36
2018-09-11T02:49:23.808Z,1018.34
2018-09-11T02:50:32.980Z,1018.35
2018-09-11T02:51:42.713Z,1018.32
2018-09-11T02:52:52.399Z,1018.31
2018-09-11T02:54:01.833Z,1018.31
2018-09-11T02:55:11.533Z,1018.31
2018-09-11T02:56:20.699Z,1018.32
2018-09-11T02:57:29.625Z,1018.3
2018-09-11T02:58:39.070Z,1018.3
2018-09-11T02:59:49.026Z,1018.32
2018-09-11T03:00:58.452Z,1018.33
2018-09-11T03:02:08.005Z,1018.39
2018-09-11T03:03:17.692Z,1018.36
2018-09-11T03:04:27.123Z,1018.37
2018-09-11T03:05:36.556Z,1018.33
2018-09-11T03:06:45.806Z,1018.36
2018-09-11T03:07:54.725Z,1018.4
2018-09-11T03:09:04.451Z,1018.38
2018-09-11T03:10:13.876Z,1018.36
2018-09-11T03:11:23.578Z,1018.39
2018-09-11T03:12:32.818Z,1018.41
2018-09-11T03:13:42.225Z,1018.42
2018-09-11T03:14:51.900Z,1018.4
2018-09-11T03:16:01.354Z,1018.44
2018-09-11T03:17:11.057Z,1018.41
2018-09-11T03:18:20.553Z,1018.38
2018-09-11T03:19:30.508Z,1018.44
2018-09-11T03:20:39.992Z,1018.43
2018-09-11T03:21:49.165Z,1018.45
2018-09-11T03:22:58.336Z,1018.44
2018-09-11T03:24:07.763Z,1018.37
2018-09-11T03:25:16.996Z,1018.41
2018-09-11T03:26:26.763Z,1018.42
2018-09-11T03:27:35.950Z,1018.4
2018-09-11T03:28:45.391Z,1018.46
2018-09-11T03:29:54.827Z,1018.42
2018-09-11T03:31:04.281Z,1018.42
2018-09-11T03:32:13.969Z,1018.43
2018-09-11T03:33:23.655Z,1018.43
2018-09-11T03:34:32.912Z,1018.45
2018-09-11T03:35:42.622Z,1018.44
2018-09-11T03:36:51.787Z,1018.44
2018-09-11T03:38:00.961Z,1018.44
2018-09-11T03:39:10.407Z,1018.43
2018-09-11T03:40:19.884Z,1018.46
2018-09-11T03:41:29.317Z,1018.44
2018-09-11T03:42:38.742Z,1018.47
2018-09-11T03:43:47.920Z,1018.46
2018-09-11T03:44:57.413Z,1018.46
2018-09-11T03:46:06.859Z,1018.46
2018-09-11T03:47:15.770Z,1018.51
2018-09-11T03:48:25.216Z,1018.46
2018-09-11T03:49:34.115Z,1018.49
2018-09-11T03:50:43.609Z,1018.47
2018-09-11T03:51:53.545Z,1018.46
2018-09-11T03:53:02.709Z,1018.48
2018-09-11T03:54:12.173Z,1018.49
2018-09-11T03:55:21.851Z,1018.5
2018-09-11T03:56:31.033Z,1018.5
2018-09-11T03:57:40.742Z,1018.5
2018-09-11T03:58:50.796Z,1018.48
2018-09-11T04:00:00.508Z,1018.51
2018-09-11T04:01:09.671Z,1018.53
2018-09-11T04:02:19.354Z,1018.56
2018-09-11T04:03:28.539Z,1018.57
2018-09-11T04:04:37.723Z,1018.56
2018-09-11T04:05:46.916Z,1018.56
2018-09-11T04:06:56.366Z,1018.57
2018-09-11T04:08:06.341Z,1018.57
2018-09-11T04:09:15.267Z,1018.63
2018-09-11T04:10:25.221Z,1018.65
2018-09-11T04:11:34.129Z,1018.65
2018-09-11T04:12:43.307Z,1018.62
2018-09-11T04:13:53.034Z,1018.65
2018-09-11T04:15:02.715Z,1018.64
2018-09-11T04:16:12.149Z,1018.64
2018-09-11T04:17:21.568Z,1018.64
2018-09-11T04:18:30.237Z,1018.63
2018-09-11T04:19:39.926Z,1018.62
2018-09-11T04:20:49.125Z,1018.64
2018-09-11T04:21:58.835Z,1018.61
2018-09-11T04:23:08.016Z,1018.58
2018-09-11T04:24:17.429Z,1018.61
2018-09-11T04:25:26.872Z,1018.6
2018-09-11T04:26:37.330Z,1018.65
2018-09-11T04:27:46.755Z,1018.61
2018-09-11T04:28:55.436Z,1018.62
2018-09-11T04:30:05.115Z,1018.62
2018-09-11T04:31:14.556Z,1018.66
2018-09-11T04:32:24.253Z,1018.65
2018-09-11T04:33:33.957Z,1018.61
2018-09-11T04:34:43.134Z,1018.68
2018-09-11T04:35:52.555Z,1018.65
2018-09-11T04:37:02.229Z,1018.65
2018-09-11T04:38:11.733Z,1018.63
2018-09-11T04:39:21.169Z,1018.62
2018-09-11T04:40:30.633Z,1018.63
2018-09-11T04:41:40.312Z,1018.62
2018-09-11T04:42:50.354Z,1018.65
2018-09-11T04:43:59.638Z,1018.7
2018-09-11T04:45:09.358Z,1018.66
2018-09-11T04:46:19.040Z,1018.66
2018-09-11T04:47:29.046Z,1018.64
2018-09-11T04:48:38.736Z,1018.61
2018-09-11T04:49:48.708Z,1018.61
2018-09-11T04:50:58.186Z,1018.62
2018-09-11T04:52:07.864Z,1018.56
2018-09-11T04:53:17.326Z,1018.62
2018-09-11T04:54:26.490Z,1018.56
2018-09-11T04:55:36.616Z,1018.59
2018-09-11T04:56:46.048Z,1018.57
2018-09-11T04:57:54.712Z,1018.56
2018-09-11T04:59:04.397Z,1018.53
2018-09-11T05:00:13.592Z,1018.5
2018-09-11T05:01:23.099Z,1018.51
2018-09-11T05:02:32.542Z,1018.52
2018-09-11T05:03:41.731Z,1018.5
2018-09-11T05:04:50.919Z,1018.53
2018-09-11T05:06:00.539Z,1018.52
2018-09-11T05:07:09.972Z,1018.5
2018-09-11T05:08:19.162Z,1018.53
2018-09-11T05:09:28.852Z,1018.57
2018-09-11T05:10:38.301Z,1018.59
2018-09-11T05:11:48.015Z,1018.59
2018-09-11T05:12:56.944Z,1018.62
2018-09-11T05:14:06.125Z,1018.58
2018-09-11T05:15:15.600Z,1018.59
2018-09-11T05:16:24.874Z,1018.55
2018-09-11T05:17:33.802Z,1018.49
2018-09-11T05:18:43.063Z,1018.53
2018-09-11T05:19:52.228Z,1018.47
2018-09-11T05:21:00.882Z,1018.48
2018-09-11T05:22:10.359Z,1018.46
2018-09-11T05:23:20.306Z,1018.42
2018-09-11T05:24:29.478Z,1018.48
2018-09-11T05:25:38.912Z,1018.49
2018-09-11T05:26:48.880Z,1018.54
2018-09-11T05:27:58.830Z,1018.53
2018-09-11T05:29:08.523Z,1018.52
2018-09-11T05:30:17.697Z,1018.52
2018-09-11T05:31:26.608Z,1018.51
2018-09-11T05:32:36.323Z,1018.51
2018-09-11T05:33:45.231Z,1018.56
2018-09-11T05:34:54.656Z,1018.5
2018-09-11T05:36:03.573Z,1018.53
2018-09-11T05:37:12.484Z,1018.52
2018-09-11T05:38:21.920Z,1018.52
2018-09-11T05:39:31.680Z,1018.51
2018-09-11T05:40:40.593Z,1018.5
2018-09-11T05:41:50.312Z,1018.56
2018-09-11T05:43:00.249Z,1018.57
2018-09-11T05:44:09.708Z,1018.54
2018-09-11T05:45:19.402Z,1018.53
2018-09-11T05:46:28.831Z,1018.48
2018-09-11T05:47:38.301Z,1018.51
2018-09-11T05:48:47.475Z,1018.49
2018-09-11T05:49:56.665Z,1018.52
2018-09-11T05:51:06.356Z,1018.52
2018-09-11T05:52:16.049Z,1018.5
2018-09-11T05:53:25.484Z,1018.48
2018-09-11T05:54:35.262Z,1018.54
2018-09-11T05:55:45.276Z,1018.56
2018-09-11T05:56:54.710Z,1018.55
2018-09-11T05:58:03.622Z,1018.58
2018-09-11T05:59:13.366Z,1018.51
2018-09-11T06:00:22.532Z,1018.45
2018-09-11T06:01:32.208Z,1018.43
2018-09-11T06:02:41.635Z,1018.46
2018-09-11T06:03:50.298Z,1018.46
2018-09-11T06:04:59.501Z,1018.46
2018-09-11T06:06:08.690Z,1018.48
2018-09-11T06:07:18.405Z,1018.39
2018-09-11T06:08:27.315Z,1018.4
2018-09-11T06:09:36.500Z,1018.42
2018-09-11T06:10:46.195Z,1018.46
2018-09-11T06:11:55.864Z,1018.48
2018-09-11T06:13:05.082Z,1018.47
2018-09-11T06:14:14.019Z,1018.48
2018-09-11T06:15:23.735Z,1018.52
2018-09-11T06:16:33.443Z,1018.49
2018-09-11T06:17:42.886Z,1018.52
2018-09-11T06:18:52.571Z,1018.52
2018-09-11T06:20:01.722Z,1018.57
2018-09-11T06:21:10.646Z,1018.53
2018-09-11T06:22:20.066Z,1018.54
2018-09-11T06:23:29.306Z,1018.56
2018-09-11T06:24:38.739Z,1018.56
2018-09-11T06:25:48.774Z,1018.61
2018-09-11T06:26:58.123Z,1018.59
2018-09-11T06:28:06.765Z,1018.57
2018-09-11T06:29:16.332Z,1018.54
2018-09-11T06:30:26.029Z,1018.63
2018-09-11T06:31:35.740Z,1018.66
2018-09-11T06:32:45.167Z,1018.65
2018-09-11T06:33:54.854Z,1018.7
2018-09-11T06:35:04.300Z,1018.65
2018-09-11T06:36:13.522Z,1018.66
2018-09-11T06:37:23.200Z,1018.67
2018-09-11T06:38:32.396Z,1018.68
2018-09-11T06:39:41.613Z,1018.69
2018-09-11T06:40:51.408Z,1018.71
2018-09-11T06:42:00.948Z,1018.71
2018-09-11T06:43:10.371Z,1018.68
2018-09-11T06:44:19.866Z,1018.68
2018-09-11T06:45:29.563Z,1018.7
2018-09-11T06:46:39.246Z,1018.69
2018-09-11T06:47:48.420Z,1018.72
2018-09-11T06:48:57.640Z,1018.68
2018-09-11T06:50:07.322Z,1018.71
2018-09-11T06:51:16.754Z,1018.71
2018-09-11T06:52:26.701Z,1018.65
2018-09-11T06:53:36.147Z,1018.71
2018-09-11T06:54:45.679Z,1018.69
2018-09-11T06:55:55.601Z,1018.7
2018-09-11T06:57:04.512Z,1018.76
2018-09-11T06:58:13.678Z,1018.73
2018-09-11T06:59:23.366Z,1018.71
2018-09-11T07:00:32.894Z,1018.64
2018-09-11T07:01:42.928Z,1018.67
2018-09-11T07:02:52.646Z,1018.68
2018-09-11T07:04:02.204Z,1018.67
2018-09-11T07:05:11.527Z,1018.67
2018-09-11T07:06:21.014Z,1018.68
2018-09-11T07:07:29.994Z,1018.65
2018-09-11T07:08:39.481Z,1018.63
2018-09-11T07:09:48.958Z,1018.67
2018-09-11T07:10:58.922Z,1018.68
2018-09-11T07:12:08.413Z,1018.67
2018-09-11T07:13:17.590Z,1018.69
2018-09-11T07:14:26.743Z,1018.71
2018-09-11T07:15:36.896Z,1018.7
2018-09-11T07:16:46.162Z,1018.74
2018-09-11T07:17:55.615Z,1018.73
2018-09-11T07:19:04.790Z,1018.74
2018-09-11T07:20:14.610Z,1018.72
2018-09-11T07:21:24.287Z,1018.76
2018-09-11T07:22:33.728Z,1018.75
2018-09-11T07:23:43.420Z,1018.7
2018-09-11T07:24:52.923Z,1018.74
2018-09-11T07:26:02.428Z,1018.72
2018-09-11T07:27:12.061Z,1018.71
2018-09-11T07:28:21.231Z,1018.69
2018-09-11T07:29:30.152Z,1018.67
2018-09-11T07:30:39.868Z,1018.69
2018-09-11T07:31:49.340Z,1018.63
2018-09-11T07:32:58.784Z,1018.64
2018-09-11T07:34:07.960Z,1018.64
2018-09-11T07:35:17.409Z,1018.68
2018-09-11T07:36:27.204Z,1018.68
2018-09-11T07:37:37.083Z,1018.72
2018-09-11T07:38:46.948Z,1018.7
2018-09-11T07:39:56.639Z,1018.69
2018-09-11T07:41:06.333Z,1018.67
2018-09-11T07:42:15.511Z,1018.69
2018-09-11T07:43:24.985Z,1018.71
2018-09-11T07:44:34.466Z,1018.72
2018-09-11T07:45:43.629Z,1018.7
2018-09-11T07:46:53.336Z,1018.75
2018-09-11T07:48:03.044Z,1018.73
2018-09-11T07:49:12.846Z,1018.73
2018-09-11T07:50:22.024Z,1018.76
2018-09-11T07:51:31.695Z,1018.76
2018-09-11T07:52:41.262Z,1018.77
2018-09-11T07:53:50.909Z,1018.77
2018-09-11T07:55:00.260Z,1018.74
2018-09-11T07:56:10.401Z,1018.81
2018-09-11T07:57:19.979Z,1018.86
2018-09-11T07:58:30.072Z,1018.88
2018-09-11T07:59:39.909Z,1018.89
2018-09-11T08:00:49.342Z,1018.91
2018-09-11T08:01:59.018Z,1018.92
2018-09-11T08:03:08.750Z,1018.92
2018-09-11T08:04:18.018Z,1018.93
2018-09-11T08:05:27.179Z,1018.94
2018-09-11T08:06:36.607Z,1018.93
2018-09-11T08:07:46.306Z,1018.94
2018-09-11T08:08:55.734Z,1018.95
2018-09-11T08:10:05.238Z,1018.96
2018-09-11T08:11:14.412Z,1018.94
2018-09-11T08:12:23.669Z,1018.95
2018-09-11T08:13:33.101Z,1018.9
2018-09-11T08:14:42.293Z,1018.94
2018-09-11T08:15:51.982Z,1018.91
2018-09-11T08:17:01.446Z,1018.89
2018-09-11T08:18:10.884Z,1018.86
2018-09-11T08:19:20.065Z,1018.89
2018-09-11T08:20:29.250Z,1018.86
2018-09-11T08:21:38.421Z,1018.89
2018-09-11T08:22:47.674Z,1018.88
2018-09-11T08:23:56.843Z,1018.9
2018-09-11T08:25:06.559Z,1018.88
2018-09-11T08:26:15.469Z,1018.91
2018-09-11T08:27:24.407Z,1018.85
2018-09-11T08:28:34.185Z,1018.83
2018-09-11T08:29:43.627Z,1018.87
2018-09-11T08:30:53.329Z,1018.91
2018-09-11T08:32:02.289Z,1018.87
2018-09-11T08:33:11.488Z,1018.84
2018-09-11T08:34:21.203Z,1018.88
2018-09-11T08:35:30.667Z,1018.85
2018-09-11T08:36:39.828Z,1018.9
2018-09-11T08:37:49.294Z,1018.89
2018-09-11T08:38:57.973Z,1018.88
2018-09-11T08:40:07.143Z,1018.86
2018-09-11T08:41:17.078Z,1018.89
2018-09-11T08:42:26.488Z,1018.88
2018-09-11T08:43:35.921Z,1018.88
2018-09-11T08:44:45.346Z,1018.84
2018-09-11T08:45:54.617Z,1018.83
2018-09-11T08:47:03.799Z,1018.92
2018-09-11T08:48:13.231Z,1018.85
2018-09-11T08:49:22.728Z,1018.79
2018-09-11T08:50:31.921Z,1018.77
2018-09-11T08:51:40.834Z,1018.75
2018-09-11T08:52:50.307Z,1018.75
2018-09-11T08:53:59.874Z,1018.75
2018-09-11T08:55:09.567Z,1018.79
2018-09-11T08:56:19.243Z,1018.81
2018-09-11T08:57:28.427Z,1018.76
2018-09-11T08:58:37.691Z,1018.76
2018-09-11T08:59:47.779Z,1018.78
2018-09-11T09:00:57.233Z,1018.79
2018-09-11T09:02:06.658Z,1018.79
2018-09-11T09:03:16.109Z,1018.82
2018-09-11T09:04:24.828Z,1018.83
2018-09-11T09:05:34.245Z,1018.82
2018-09-11T09:06:43.666Z,1018.76
2018-09-11T09:07:52.592Z,1018.74
2018-09-11T09:09:02.293Z,1018.78
2018-09-11T09:10:11.826Z,1018.68
2018-09-11T09:11:21.934Z,1018.75
2018-09-11T09:12:31.629Z,1018.8
2018-09-11T09:13:41.067Z,1018.75
2018-09-11T09:14:50.747Z,1018.74
2018-09-11T09:16:00.459Z,1018.78
2018-09-11T09:17:09.392Z,1018.78
2018-09-11T09:18:18.400Z,1018.7
2018-09-11T09:19:27.612Z,1018.79
2018-09-11T09:20:36.793Z,1018.75
2018-09-11T09:21:46.527Z,1018.76
2018-09-11T09:22:56.220Z,1018.75
2018-09-11T09:24:06.023Z,1018.78
2018-09-11T09:25:15.465Z,1018.73
2018-09-11T09:26:24.898Z,1018.73
2018-09-11T09:27:34.662Z,1018.71
2018-09-11T09:28:44.897Z,1018.72
2018-09-11T09:29:53.541Z,1018.62
2018-09-11T09:31:02.962Z,1018.62
2018-09-11T09:32:12.404Z,1018.63
2018-09-11T09:33:22.014Z,1018.62
2018-09-11T09:34:31.970Z,1018.61
2018-09-11T09:35:41.921Z,1018.63
2018-09-11T09:36:51.186Z,1018.58
2018-09-11T09:38:00.788Z,1018.59
2018-09-11T09:39:09.805Z,1018.53
2018-09-11T09:40:19.254Z,1018.59
2018-09-11T09:41:28.442Z,1018.58
2018-09-11T09:42:38.122Z,1018.56
2018-09-11T09:43:47.902Z,1018.57
2018-09-11T09:44:57.706Z,1018.57
2018-09-11T09:46:07.157Z,1018.53
2018-09-11T09:47:16.941Z,1018.44
2018-09-11T09:48:26.401Z,1018.51
2018-09-11T09:49:35.834Z,1018.51
2018-09-11T09:50:45.545Z,1018.5
2018-09-11T09:51:54.816Z,1018.48
2018-09-11T09:53:04.779Z,1018.53
2018-09-11T09:54:14.230Z,1018.42
2018-09-11T09:55:24.169Z,1018.51
2018-09-11T09:56:33.856Z,1018.56
2018-09-11T09:57:43.277Z,1018.42
2018-09-11T09:58:52.766Z,1018.48
2018-09-11T10:00:02.207Z,1018.43
2018-09-11T10:01:12.203Z,1018.44
2018-09-11T10:02:21.624Z,1018.47
2018-09-11T10:03:31.049Z,1018.48
2018-09-11T10:04:40.761Z,1018.45
2018-09-11T10:05:51.011Z,1018.48
2018-09-11T10:06:59.910Z,1018.46
2018-09-11T10:08:09.071Z,1018.42
2018-09-11T10:09:18.456Z,1018.35
2018-09-11T10:10:27.625Z,1018.4
2018-09-11T10:11:36.857Z,1018.36
2018-09-11T10:12:46.661Z,1018.31
2018-09-11T10:13:56.480Z,1018.38
2018-09-11T10:15:06.158Z,1018.34
2018-09-11T10:16:15.358Z,1018.42
2018-09-11T10:17:24.884Z,1018.42
2018-09-11T10:18:35.055Z,1018.47
2018-09-11T10:19:44.251Z,1018.36
2018-09-11T10:20:53.443Z,1018.43
2018-09-11T10:22:02.797Z,1018.43
2018-09-11T10:23:12.221Z,1018.36
2018-09-11T10:24:21.461Z,1018.47
2018-09-11T10:25:30.616Z,1018.46
2018-09-11T10:26:40.577Z,1018.47
2018-09-11T10:27:50.262Z,1018.44
2018-09-11T10:28:59.703Z,1018.45
2018-09-11T10:30:08.613Z,1018.51
2018-09-11T10:31:17.801Z,1018.47
2018-09-11T10:32:26.719Z,1018.41
2018-09-11T10:33:35.913Z,1018.37
2018-09-11T10:34:45.794Z,1018.35
2018-09-11T10:35:54.704Z,1018.25
2018-09-11T10:37:04.455Z,1018.37
2018-09-11T10:38:13.666Z,1018.26
2018-09-11T10:39:22.633Z,1018.28
2018-09-11T10:40:31.949Z,1018.24
2018-09-11T10:41:41.628Z,1018.23
2018-09-11T10:42:50.802Z,1018.3
2018-09-11T10:44:00.047Z,1018.34
2018-09-11T10:45:09.253Z,1018.26
2018-09-11T10:46:18.667Z,1018.3
2018-09-11T10:47:27.826Z,1018.27
2018-09-11T10:48:37.270Z,1018.27
2018-09-11T10:49:46.864Z,1018.25
2018-09-11T10:50:56.818Z,1018.23
2018-09-11T10:52:06.005Z,1018.17
2018-09-11T10:53:15.691Z,1018.17
2018-09-11T10:54:25.113Z,1018.21
2018-09-11T10:55:34.520Z,1018.1
2018-09-11T10:56:43.681Z,1018.16
2018-09-11T10:57:52.602Z,1018.17
2018-09-11T10:59:02.273Z,1018.2
2018-09-11T11:00:12.047Z,1018.17
2018-09-11T11:01:21.946Z,1018.12
2018-09-11T11:02:31.114Z,1018.15
2018-09-11T11:03:40.279Z,1018.12
2018-09-11T11:04:50.211Z,1018.11
2018-09-11T11:05:59.427Z,1018.05
2018-09-11T11:07:08.648Z,1018.09
2018-09-11T11:08:18.086Z,1018.03
2018-09-11T11:09:27.513Z,1018.07
2018-09-11T11:10:36.943Z,1018.1
2018-09-11T11:11:46.948Z,1018.1
2018-09-11T11:12:56.130Z,1018.05
2018-09-11T11:14:05.806Z,1018.07
2018-09-11T11:15:15.487Z,1018.03
2018-09-11T11:16:25.182Z,1017.95
2018-09-11T11:17:34.864Z,1018.02
2018-09-11T11:18:44.542Z,1017.93
2018-09-11T11:19:53.516Z,1017.88
2018-09-11T11:21:02.694Z,1017.92
2018-09-11T11:22:11.881Z,1017.88
2018-09-11T11:23:21.309Z,1017.83
2018-09-11T11:24:30.471Z,1017.85
2018-09-11T11:25:40.184Z,1017.8
2018-09-11T11:26:49.363Z,1017.79
2018-09-11T11:27:59.222Z,1017.77
2018-09-11T11:29:08.654Z,1017.88
2018-09-11T11:30:18.657Z,1017.83
2018-09-11T11:31:28.121Z,1017.87
2018-09-11T11:32:37.531Z,1017.83
2018-09-11T11:33:46.687Z,1017.83
2018-09-11T11:34:56.360Z,1017.82
2018-09-11T11:36:05.603Z,1017.83
2018-09-11T11:37:16.285Z,1017.8
2018-09-11T11:38:26.761Z,1017.85
2018-09-11T11:39:36.702Z,1017.82
2018-09-11T11:40:45.660Z,1017.81
2018-09-11T11:41:55.472Z,1017.76
2018-09-11T11:43:04.946Z,1017.78
2018-09-11T11:44:14.365Z,1017.79
2018-09-11T11:45:24.043Z,1017.79
2018-09-11T11:46:33.261Z,1017.8
2018-09-11T11:47:43.210Z,1017.82
2018-09-11T11:48:52.160Z,1017.81
2018-09-11T11:50:02.165Z,1017.84
2018-09-11T11:51:11.071Z,1017.8
2018-09-11T11:52:21.019Z,1017.77
2018-09-11T11:53:30.183Z,1017.84
2018-09-11T11:54:39.386Z,1017.86
2018-09-11T11:55:49.238Z,1017.79
2018-09-11T11:56:58.421Z,1017.76
2018-09-11T11:58:07.335Z,1017.8
2018-09-11T11:59:16.768Z,1017.81
2018-09-11T12:00:26.476Z,1017.91
2018-09-11T12:01:36.294Z,1017.77
2018-09-11T12:02:46.207Z,1017.84
2018-09-11T12:03:55.950Z,1017.85
2018-09-11T12:05:05.363Z,1017.88
2018-09-11T12:06:15.118Z,1017.86
2018-09-11T12:07:24.811Z,1017.82
2018-09-11T12:08:34.755Z,1017.81
2018-09-11T12:09:44.457Z,1017.77
2018-09-11T12:10:54.135Z,1017.78
2018-09-11T12:12:03.820Z,1017.78
2018-09-11T12:13:13.239Z,1017.72
2018-09-11T12:14:22.928Z,1017.7
2018-09-11T12:15:32.389Z,1017.76
2018-09-11T12:16:41.826Z,1017.65
2018-09-11T12:17:51.451Z,1017.7
2018-09-11T12:19:01.422Z,1017.71
2018-09-11T12:20:11.195Z,1017.68
2018-09-11T12:21:20.117Z,1017.67
2018-09-11T12:22:29.808Z,1017.68
2018-09-11T12:23:38.995Z,1017.66
2018-09-11T12:24:47.902Z,1017.67
2018-09-11T12:25:57.315Z,1017.64
2018-09-11T12:27:06.748Z,1017.68
2018-09-11T12:28:15.946Z,1017.66
2018-09-11T12:29:24.921Z,1017.58
2018-09-11T12:30:33.831Z,1017.64
2018-09-11T12:31:42.995Z,1017.53
2018-09-11T12:32:52.427Z,1017.48
2018-09-11T12:34:01.599Z,1017.48
2018-09-11T12:35:11.291Z,1017.56
2018-09-11T12:36:20.894Z,1017.51
2018-09-11T12:37:30.310Z,1017.52
2018-09-11T12:38:40.276Z,1017.48
2018-09-11T12:39:49.767Z,1017.53
2018-09-11T12:40:59.185Z,1017.51
2018-09-11T12:42:08.096Z,1017.48
2018-09-11T12:43:17.557Z,1017.45
2018-09-11T12:44:27.065Z,1017.44
2018-09-11T12:45:36.025Z,1017.45
2018-09-11T12:46:46.672Z,1017.42
2018-09-11T12:47:57.510Z,1017.47
2018-09-11T12:49:09.102Z,1017.41
2018-09-11T12:50:18.572Z,1017.43
2018-09-11T12:51:28.264Z,1017.35
2018-09-11T12:52:37.769Z,1017.32
2018-09-11T12:53:47.511Z,1017.35
2018-09-11T12:54:57.207Z,1017.31
2018-09-11T12:56:06.648Z,1017.23
2018-09-11T12:57:16.124Z,1017.25
2018-09-11T12:58:25.295Z,1017.26
2018-09-11T12:59:34.536Z,1017.26
2018-09-11T13:00:43.726Z,1017.21
2018-09-11T13:01:53.237Z,1017.28
2018-09-11T13:03:02.396Z,1017.26
2018-09-11T13:04:12.128Z,1017.29
2018-09-11T13:05:21.306Z,1017.26
2018-09-11T13:06:31.049Z,1017.23
2018-09-11T13:07:40.067Z,1017.19
2018-09-11T13:08:49.561Z,1017.11
2018-09-11T13:09:59.149Z,1017.17
2018-09-11T13:11:08.897Z,1017.12
2018-09-11T13:12:18.661Z,1017.12
2018-09-11T13:13:28.755Z,1017.09
2018-09-11T13:14:38.026Z,1017.09
2018-09-11T13:15:47.529Z,1017.1
2018-09-11T13:16:57.370Z,1017.1
2018-09-11T13:18:06.845Z,1017.07
2018-09-11T13:19:16.584Z,1017.07
2018-09-11T13:20:26.134Z,1017.06
2018-09-11T13:21:36.128Z,1017.09
2018-09-11T13:22:45.363Z,1017.06
2018-09-11T13:23:55.128Z,1017.1
2018-09-11T13:25:04.110Z,1017.05
2018-09-11T13:26:14.200Z,1017.05
2018-09-11T13:27:24.055Z,1017.06
2018-09-11T13:28:33.608Z,1017.11
2018-09-11T13:29:43.767Z,1017.06
2018-09-11T13:30:53.773Z,1017.01
2018-09-11T13:32:03.213Z,1017.1
2018-09-11T13:33:12.748Z,1017.05
2018-09-11T13:34:22.494Z,1016.98
2018-09-11T13:35:31.470Z,1017.02
2018-09-11T13:36:41.230Z,1016.99
2018-09-11T13:37:50.977Z,1016.94
2018-09-11T13:38:59.637Z,1016.95
2018-09-11T13:40:08.803Z,1016.94
2018-09-11T13:41:18.774Z,1017
2018-09-11T13:42:27.984Z,1016.93
2018-09-11T13:43:37.494Z,1016.95
2018-09-11T13:44:47.248Z,1016.91
2018-09-11T13:45:56.543Z,1016.9
2018-09-11T13:47:06.058Z,1016.88
2018-09-11T13:48:16.127Z,1016.91
2018-09-11T13:49:25.591Z,1016.86
2018-09-11T13:50:35.071Z,1016.89
2018-09-11T13:51:43.828Z,1016.87
2018-09-11T13:52:53.677Z,1016.83
2018-09-11T13:54:03.755Z,1016.86
2018-09-11T13:55:13.032Z,1016.81
2018-09-11T13:56:22.299Z,1016.82
2018-09-11T13:57:31.795Z,1016.72
2018-09-11T13:58:41.037Z,1016.8
2018-09-11T13:59:50.743Z,1016.72
2018-09-11T14:01:00.289Z,1016.74
2018-09-11T14:02:10.076Z,1016.71